METAR Data
IDs: Format: Raw Decoded Include TAF

Data at: 1930 UTC 07 Dec 2021

METAR for:KGXY (Greeley/Weld Cnty Ar, CO, US)
Text:KGXY 071856Z AUTO 17010KT 10SM FEW090 06/M08 A2989 RMK AO2 SLP155 T00561078
Temperature: 5.6°C ( 42°F)
Dewpoint: -7.8°C ( 18°F) [RH = 37%]
Pressure (altimeter):29.89 inches Hg (1012.3 mb) [Sea level pressure: 1015.5 mb]
Winds:from the S (170 degrees) at 12 MPH (10 knots; 5.1 m/s)
Visibility:10 or more sm (16+ km)
Ceiling:at least 12,000 feet AGL
Clouds: few clouds at 9000 feet AGL
QC Flag:automated observation with no human augmentation